sensor_id;sensor_type;location;lat;lon;timestamp;pressure;altitude;pressure_sealevel;temperature;humidity
54872;BME280;43914;57.680;11.982;2022-12-18T00:01:31;101188.81;;;1.28;100.00
54872;BME280;43914;57.680;11.982;2022-12-18T00:04:00;101202.80;;;1.30;100.00
54872;BME280;43914;57.680;11.982;2022-12-18T00:06:28;101202.80;;;1.30;100.00
54872;BME280;43914;57.680;11.982;2022-12-18T00:08:56;101210.73;;;1.30;100.00
54872;BME280;43914;57.680;11.982;2022-12-18T00:11:25;101182.06;;;1.24;100.00
54872;BME280;43914;57.680;11.982;2022-12-18T00:13:54;101193.88;;;1.25;100.00
54872;BME280;43914;57.680;11.982;2022-12-18T00:16:24;101196.13;;;1.24;100.00
54872;BME280;43914;57.680;11.982;2022-12-18T00:18:53;101189.64;;;1.23;100.00
54872;BME280;43914;57.680;11.982;2022-12-18T00:21:21;101192.39;;;1.21;100.00
54872;BME280;43914;57.680;11.982;2022-12-18T00:23:48;101183.11;;;1.15;100.00
54872;BME280;43914;57.680;11.982;2022-12-18T00:26:25;101179.01;;;1.17;100.00
54872;BME280;43914;57.680;11.982;2022-12-18T00:28:49;101184.89;;;1.15;100.00
54872;BME280;43914;57.680;11.982;2022-12-18T00:31:23;101186.94;;;1.11;100.00
54872;BME280;43914;57.680;11.982;2022-12-18T00:33:47;101190.64;;;1.09;100.00
54872;BME280;43914;57.680;11.982;2022-12-18T00:36:16;101177.27;;;1.05;100.00
54872;BME280;43914;57.680;11.982;2022-12-18T00:38:44;101185.29;;;0.97;100.00
54872;BME280;43914;57.680;11.982;2022-12-18T00:41:12;101189.95;;;0.94;100.00
54872;BME280;43914;57.680;11.982;2022-12-18T00:43:42;101176.80;;;0.86;100.00
54872;BME280;43914;57.680;11.982;2022-12-18T00:46:08;101180.84;;;0.79;100.00
54872;BME280;43914;57.680;11.982;2022-12-18T00:48:34;101183.16;;;0.71;100.00
54872;BME280;43914;57.680;11.982;2022-12-18T00:50:59;101181.45;;;0.64;100.00
54872;BME280;43914;57.680;11.982;2022-12-18T00:53:25;101178.54;;;0.62;100.00
54872;BME280;43914;57.680;11.982;2022-12-18T00:55:51;101180.17;;;0.57;100.00
54872;BME280;43914;57.680;11.982;2022-12-18T00:58:17;101186.42;;;0.56;100.00
54872;BME280;43914;57.680;11.982;2022-12-18T01:00:43;101193.98;;;0.55;100.00
54872;BME280;43914;57.680;11.982;2022-12-18T01:03:16;101186.55;;;0.54;100.00
54872;BME280;43914;57.680;11.982;2022-12-18T01:05:40;101181.25;;;0.54;100.00
54872;BME280;43914;57.680;11.982;2022-12-18T01:08:06;101179.44;;;0.55;100.00
54872;BME280;43914;57.680;11.982;2022-12-18T01:10:33;101179.44;;;0.55;100.00
54872;BME280;43914;57.680;11.982;2022-12-18T01:12:59;101183.53;;;0.53;100.00
54872;BME280;43914;57.680;11.982;2022-12-18T01:15:24;101188.45;;;0.52;100.00
54872;BME280;43914;57.680;11.982;2022-12-18T01:17:52;101191.47;;;0.53;100.00
54872;BME280;43914;57.680;11.982;2022-12-18T01:20:20;101189.77;;;0.52;100.00
54872;BME280;43914;57.680;11.982;2022-12-18T01:22:46;101187.13;;;0.52;100.00
54872;BME280;43914;57.680;11.982;2022-12-18T01:25:14;101189.77;;;0.52;100.00
54872;BME280;43914;57.680;11.982;2022-12-18T01:27:40;101195.44;;;0.53;100.00
54872;BME280;43914;57.680;11.982;2022-12-18T01:30:07;101210.94;;;0.52;100.00
54872;BME280;43914;57.680;11.982;2022-12-18T01:32:33;101205.27;;;0.51;100.00
54872;BME280;43914;57.680;11.982;2022-12-18T01:34:59;101200.08;;;0.50;100.00
54872;BME280;43914;57.680;11.982;2022-12-18T01:37:25;101203.22;;;0.49;100.00
54872;BME280;43914;57.680;11.982;2022-12-18T01:39:52;101206.45;;;0.47;100.00
54872;BME280;43914;57.680;11.982;2022-12-18T01:42:21;101203.80;;;0.47;100.00
54872;BME280;43914;57.680;11.982;2022-12-18T01:48:00;101206.45;;;0.47;100.00
54872;BME280;43914;57.680;11.982;2022-12-18T01:50:37;101193.22;;;0.47;100.00
54872;BME280;43914;57.680;11.982;2022-12-18T01:53:13;101188.86;;;0.46;100.00
54872;BME280;43914;57.680;11.982;2022-12-18T01:55:46;101188.39;;;0.47;100.00
54872;BME280;43914;57.680;11.982;2022-12-18T01:58:15;101191.91;;;0.47;100.00
54872;BME280;43914;57.680;11.982;2022-12-18T02:00:42;101181.88;;;0.45;100.00
54872;BME280;43914;57.680;11.982;2022-12-18T02:03:08;101179.51;;;0.48;100.00
54872;BME280;43914;57.680;11.982;2022-12-18T02:08:43;101167.45;;;0.43;100.00
54872;BME280;43914;57.680;11.982;2022-12-18T02:11:39;101163.59;;;0.42;100.00
54872;BME280;43914;57.680;11.982;2022-12-18T02:17:03;101174.71;;;0.47;100.00
54872;BME280;43914;57.680;11.982;2022-12-18T02:25:06;101162.47;;;0.52;100.00
54872;BME280;43914;57.680;11.982;2022-12-18T02:27:35;101166.73;;;0.60;100.00
54872;BME280;43914;57.680;11.982;2022-12-18T02:30:03;101165.73;;;0.68;100.00
54872;BME280;43914;57.680;11.982;2022-12-18T02:32:41;101165.02;;;0.72;100.00
54872;BME280;43914;57.680;11.982;2022-12-18T02:35:09;101175.06;;;0.80;100.00
54872;BME280;43914;57.680;11.982;2022-12-18T02:37:37;101171.23;;;0.84;100.00
54872;BME280;43914;57.680;11.982;2022-12-18T02:40:06;101170.05;;;0.88;100.00
54872;BME280;43914;57.680;11.982;2022-12-18T02:42:33;101161.89;;;0.91;100.00
54872;BME280;43914;57.680;11.982;2022-12-18T02:44:59;101168.55;;;0.97;100.00
54872;BME280;43914;57.680;11.982;2022-12-18T02:47:34;101169.65;;;1.00;100.00
54872;BME280;43914;57.680;11.982;2022-12-18T02:53:24;101172.02;;;1.10;100.00
54872;BME280;43914;57.680;11.982;2022-12-18T02:56:21;101179.60;;;1.15;100.00
54872;BME280;43914;57.680;11.982;2022-12-18T03:02:01;101170.74;;;1.22;100.00
54872;BME280;43914;57.680;11.982;2022-12-18T03:04:43;101181.10;;;1.25;100.00
54872;BME280;43914;57.680;11.982;2022-12-18T03:07:15;101182.70;;;1.27;100.00
54872;BME280;43914;57.680;11.982;2022-12-18T03:09:46;101172.70;;;1.31;100.00
54872;BME280;43914;57.680;11.982;2022-12-18T03:12:20;101171.15;;;1.34;100.00
54872;BME280;43914;57.680;11.982;2022-12-18T03:17:52;101173.14;;;1.43;100.00
54872;BME280;43914;57.680;11.982;2022-12-18T03:20:19;101171.08;;;1.41;100.00
54872;BME280;43914;57.680;11.982;2022-12-18T03:22:50;101183.00;;;1.47;100.00
54872;BME280;43914;57.680;11.982;2022-12-18T03:25:19;101177.38;;;1.52;100.00
54872;BME280;43914;57.680;11.982;2022-12-18T03:27:48;101174.00;;;1.55;100.00
54872;BME280;43914;57.680;11.982;2022-12-18T03:30:17;101174.00;;;1.55;100.00
54872;BME280;43914;57.680;11.982;2022-12-18T03:32:53;101182.08;;;1.54;100.00
54872;BME280;43914;57.680;11.982;2022-12-18T03:35:25;101168.47;;;1.53;100.00
54872;BME280;43914;57.680;11.982;2022-12-18T03:37:58;101178.14;;;1.60;100.00
54872;BME280;43914;57.680;11.982;2022-12-18T03:40:31;101178.14;;;1.60;100.00
54872;BME280;43914;57.680;11.982;2022-12-18T03:43:05;101180.30;;;1.60;100.00
54872;BME280;43914;57.680;11.982;2022-12-18T03:45:36;101169.33;;;1.59;100.00
54872;BME280;43914;57.680;11.982;2022-12-18T03:48:13;101164.39;;;1.60;100.00
54872;BME280;43914;57.680;11.982;2022-12-18T03:51:03;101188.14;;;1.62;100.00
54872;BME280;43914;57.680;11.982;2022-12-18T03:53:41;101180.66;;;1.61;100.00
54872;BME280;43914;57.680;11.982;2022-12-18T03:56:09;101181.02;;;1.62;100.00
54872;BME280;43914;57.680;11.982;2022-12-18T03:58:37;101190.19;;;1.64;100.00
54872;BME280;43914;57.680;11.982;2022-12-18T04:01:06;101183.44;;;1.60;100.00
54872;BME280;43914;57.680;11.982;2022-12-18T04:03:35;101189.09;;;1.66;100.00
54872;BME280;43914;57.680;11.982;2022-12-18T04:06:03;101193.67;;;1.64;100.00
54872;BME280;43914;57.680;11.982;2022-12-18T04:08:29;101162.23;;;1.65;100.00
54872;BME280;43914;57.680;11.982;2022-12-18T04:10:56;101177.17;;;1.66;100.00
54872;BME280;43914;57.680;11.982;2022-12-18T04:13:27;101186.22;;;1.64;100.00
54872;BME280;43914;57.680;11.982;2022-12-18T04:15:56;101184.39;;;1.64;100.00
54872;BME280;43914;57.680;11.982;2022-12-18T04:18:22;101191.02;;;1.64;100.00
54872;BME280;43914;57.680;11.982;2022-12-18T04:20:48;101195.72;;;1.66;100.00
54872;BME280;43914;57.680;11.982;2022-12-18T04:23:14;101192.61;;;1.67;100.00
54872;BME280;43914;57.680;11.982;2022-12-18T04:25:40;101198.14;;;1.69;100.00
54872;BME280;43914;57.680;11.982;2022-12-18T04:28:06;101189.00;;;1.68;100.00
54872;BME280;43914;57.680;11.982;2022-12-18T04:30:32;101200.42;;;1.68;100.00
54872;BME280;43914;57.680;11.982;2022-12-18T04:32:59;101197.78;;;1.68;100.00
54872;BME280;43914;57.680;11.982;2022-12-18T04:35:25;101201.75;;;1.68;100.00
54872;BME280;43914;57.680;11.982;2022-12-18T04:37:51;101203.44;;;1.69;100.00
54872;BME280;43914;57.680;11.982;2022-12-18T04:40:17;101201.75;;;1.68;100.00
54872;BME280;43914;57.680;11.982;2022-12-18T04:42:43;101212.25;;;1.70;100.00
54872;BME280;43914;57.680;11.982;2022-12-18T04:45:09;101217.55;;;1.70;100.00
54872;BME280;43914;57.680;11.982;2022-12-18T04:47:35;101207.78;;;1.70;100.00
54872;BME280;43914;57.680;11.982;2022-12-18T04:50:05;101200.33;;;1.70;100.00
54872;BME280;43914;57.680;11.982;2022-12-18T04:52:31;101192.02;;;1.69;100.00
54872;BME280;43914;57.680;11.982;2022-12-18T04:54:57;101192.02;;;1.69;100.00
54872;BME280;43914;57.680;11.982;2022-12-18T04:57:23;101183.70;;;1.68;100.00
54872;BME280;43914;57.680;11.982;2022-12-18T04:59:49;101198.87;;;1.66;100.00
54872;BME280;43914;57.680;11.982;2022-12-18T05:02:15;101199.83;;;1.65;100.00
54872;BME280;43914;57.680;11.982;2022-12-18T05:04:41;101207.05;;;1.68;100.00
54872;BME280;43914;57.680;11.982;2022-12-18T05:07:06;101206.09;;;1.69;100.00
54872;BME280;43914;57.680;11.982;2022-12-18T05:09:32;101210.33;;;1.72;100.00
54872;BME280;43914;57.680;11.982;2022-12-18T05:11:58;101216.36;;;1.74;100.00
54872;BME280;43914;57.680;11.982;2022-12-18T05:14:24;101210.59;;;1.75;100.00
54872;BME280;43914;57.680;11.982;2022-12-18T05:16:50;101216.98;;;1.78;100.00
54872;BME280;43914;57.680;11.982;2022-12-18T05:19:16;101213.37;;;1.79;100.00
54872;BME280;43914;57.680;11.982;2022-12-18T05:21:42;101206.25;;;1.79;100.00
54872;BME280;43914;57.680;11.982;2022-12-18T05:24:08;101211.91;;;1.80;100.00
54872;BME280;43914;57.680;11.982;2022-12-18T05:26:34;101200.48;;;1.80;100.00
54872;BME280;43914;57.680;11.982;2022-12-18T05:29:00;101209.53;;;1.83;100.00
54872;BME280;43914;57.680;11.982;2022-12-18T05:31:26;101209.66;;;1.87;100.00
54872;BME280;43914;57.680;11.982;2022-12-18T05:33:52;101208.33;;;1.87;100.00
54872;BME280;43914;57.680;11.982;2022-12-18T05:36:19;101206.41;;;1.89;100.00
54872;BME280;43914;57.680;11.982;2022-12-18T05:38:45;101203.66;;;1.91;100.00
54872;BME280;43914;57.680;11.982;2022-12-18T05:41:11;101200.50;;;1.91;100.00
54872;BME280;43914;57.680;11.982;2022-12-18T05:43:38;101217.86;;;1.95;100.00
54872;BME280;43914;57.680;11.982;2022-12-18T05:46:07;101212.20;;;1.94;100.00
54872;BME280;43914;57.680;11.982;2022-12-18T05:48:36;101235.95;;;2.01;100.00
54872;BME280;43914;57.680;11.982;2022-12-18T05:51:07;101235.95;;;2.01;100.00
54872;BME280;43914;57.680;11.982;2022-12-18T05:53:37;101228.76;;;2.04;100.00
54872;BME280;43914;57.680;11.982;2022-12-18T05:56:06;101217.63;;;1.98;100.00
54872;BME280;43914;57.680;11.982;2022-12-18T05:58:34;101217.63;;;1.98;100.00
54872;BME280;43914;57.680;11.982;2022-12-18T06:01:18;101206.42;;;2.00;100.00
54872;BME280;43914;57.680;11.982;2022-12-18T06:03:46;101206.42;;;2.00;100.00
54872;BME280;43914;57.680;11.982;2022-12-18T06:06:21;101212.69;;;1.99;100.00
54872;BME280;43914;57.680;11.982;2022-12-18T06:08:49;101224.63;;;1.99;100.00
54872;BME280;43914;57.680;11.982;2022-12-18T06:11:18;101232.81;;;1.96;100.00
54872;BME280;43914;57.680;11.982;2022-12-18T06:13:45;101220.52;;;1.90;100.00
54872;BME280;43914;57.680;11.982;2022-12-18T06:16:12;101224.36;;;1.91;100.00
54872;BME280;43914;57.680;11.982;2022-12-18T06:18:38;101224.36;;;1.91;100.00
54872;BME280;43914;57.680;11.982;2022-12-18T06:21:04;101232.94;;;1.95;100.00
54872;BME280;43914;57.680;11.982;2022-12-18T06:23:30;101227.04;;;1.97;100.00
54872;BME280;43914;57.680;11.982;2022-12-18T06:25:57;101238.02;;;1.98;100.00
54872;BME280;43914;57.680;11.982;2022-12-18T06:28:23;101234.50;;;1.97;100.00
54872;BME280;43914;57.680;11.982;2022-12-18T06:30:49;101245.73;;;2.01;100.00
54872;BME280;43914;57.680;11.982;2022-12-18T06:33:16;101244.87;;;2.00;100.00
54872;BME280;43914;57.680;11.982;2022-12-18T06:35:46;101238.97;;;2.02;100.00
54872;BME280;43914;57.680;11.982;2022-12-18T06:38:12;101245.73;;;2.01;100.00
54872;BME280;43914;57.680;11.982;2022-12-18T06:40:38;101244.14;;;1.98;100.00
54872;BME280;43914;57.680;11.982;2022-12-18T06:43:05;101241.39;;;2.00;100.00
54872;BME280;43914;57.680;11.982;2022-12-18T06:45:31;101241.39;;;2.00;100.00
54872;BME280;43914;57.680;11.982;2022-12-18T06:47:57;101247.78;;;2.03;100.00
54872;BME280;43914;57.680;11.982;2022-12-18T06:50:23;101245.98;;;2.04;100.00
54872;BME280;43914;57.680;11.982;2022-12-18T06:52:49;101242.48;;;2.03;100.00
54872;BME280;43914;57.680;11.982;2022-12-18T06:55:15;101249.58;;;2.02;100.00
54872;BME280;43914;57.680;11.982;2022-12-18T06:57:43;101247.88;;;2.01;100.00
54872;BME280;43914;57.680;11.982;2022-12-18T07:00:11;101255.14;;;2.05;100.00
54872;BME280;43914;57.680;11.982;2022-12-18T07:02:37;101250.20;;;2.06;100.00
54872;BME280;43914;57.680;11.982;2022-12-18T07:05:04;101255.40;;;2.08;100.00
54872;BME280;43914;57.680;11.982;2022-12-18T07:07:30;101269.38;;;2.10;100.00
54872;BME280;43914;57.680;11.982;2022-12-18T07:09:56;101264.81;;;2.12;100.00
54872;BME280;43914;57.680;11.982;2022-12-18T07:12:22;101266.73;;;2.15;100.00
54872;BME280;43914;57.680;11.982;2022-12-18T07:14:48;101263.84;;;2.13;100.00
54872;BME280;43914;57.680;11.982;2022-12-18T07:17:14;101267.69;;;2.14;100.00
54872;BME280;43914;57.680;11.982;2022-12-18T07:19:40;101275.78;;;2.13;100.00
54872;BME280;43914;57.680;11.982;2022-12-18T07:22:06;101271.44;;;2.12;100.00
54872;BME280;43914;57.680;11.982;2022-12-18T07:24:33;101283.73;;;2.13;100.00
54872;BME280;43914;57.680;11.982;2022-12-18T07:26:59;101279.89;;;2.17;100.00
54872;BME280;43914;57.680;11.982;2022-12-18T07:29:25;101273.16;;;2.19;100.00
54872;BME280;43914;57.680;11.982;2022-12-18T07:31:51;101289.43;;;2.20;100.00
54872;BME280;43914;57.680;11.982;2022-12-18T07:34:17;101294.13;;;2.22;100.00
54872;BME280;43914;57.680;11.982;2022-12-18T07:36:44;101279.91;;;2.23;100.00
54872;BME280;43914;57.680;11.982;2022-12-18T07:39:13;101288.23;;;2.24;100.00
54872;BME280;43914;57.680;11.982;2022-12-18T07:41:39;101295.23;;;2.25;100.00
54872;BME280;43914;57.680;11.982;2022-12-18T07:44:09;101294.13;;;2.27;100.00
54872;BME280;43914;57.680;11.982;2022-12-18T07:46:36;101298.83;;;2.29;100.00
54872;BME280;43914;57.680;11.982;2022-12-18T07:49:02;101294.75;;;2.31;100.00
54872;BME280;43914;57.680;11.982;2022-12-18T07:51:28;101294.52;;;2.34;100.00
54872;BME280;43914;57.680;11.982;2022-12-18T07:53:56;101288.75;;;2.35;100.00
54872;BME280;43914;57.680;11.982;2022-12-18T07:56:22;101297.06;;;2.36;100.00
54872;BME280;43914;57.680;11.982;2022-12-18T07:58:48;101306.22;;;2.37;100.00
54872;BME280;43914;57.680;11.982;2022-12-18T08:01:14;101317.19;;;2.38;100.00
54872;BME280;43914;57.680;11.982;2022-12-18T08:03:41;101311.42;;;2.39;100.00
54872;BME280;43914;57.680;11.982;2022-12-18T08:06:08;101297.19;;;2.40;100.00
54872;BME280;43914;57.680;11.982;2022-12-18T08:08:36;101315.50;;;2.37;100.00
54872;BME280;43914;57.680;11.982;2022-12-18T08:11:02;101316.36;;;2.38;100.00
54872;BME280;43914;57.680;11.982;2022-12-18T08:13:28;101335.30;;;2.39;100.00
54872;BME280;43914;57.680;11.982;2022-12-18T08:16:05;101339.51;;;2.41;100.00
54872;BME280;43914;57.680;11.982;2022-12-18T08:18:34;101344.45;;;2.40;100.00
54872;BME280;43914;57.680;11.982;2022-12-18T08:21:13;101346.04;;;2.43;100.00
54872;BME280;43914;57.680;11.982;2022-12-18T08:23:41;101347.36;;;2.43;100.00
54872;BME280;43914;57.680;11.982;2022-12-18T08:26:07;101363.88;;;2.47;100.00
54872;BME280;43914;57.680;11.982;2022-12-18T08:28:34;101355.55;;;2.45;100.00
54872;BME280;43914;57.680;11.982;2022-12-18T08:31:00;101357.84;;;2.44;100.00
54872;BME280;43914;57.680;11.982;2022-12-18T08:33:26;101364.84;;;2.45;100.00
54872;BME280;43914;57.680;11.982;2022-12-18T08:35:52;101363.77;;;2.48;100.00
54872;BME280;43914;57.680;11.982;2022-12-18T08:38:19;101368.72;;;2.47;100.00
54872;BME280;43914;57.680;11.982;2022-12-18T08:40:45;101368.13;;;2.49;100.00
54872;BME280;43914;57.680;11.982;2022-12-18T08:43:13;101372.83;;;2.51;100.00
54872;BME280;43914;57.680;11.982;2022-12-18T08:45:57;101381.78;;;2.56;100.00
54872;BME280;43914;57.680;11.982;2022-12-18T08:48:23;101372.73;;;2.53;100.00
54872;BME280;43914;57.680;11.982;2022-12-18T08:50:59;101370.54;;;2.52;100.00
54872;BME280;43914;57.680;11.982;2022-12-18T08:53:26;101378.86;;;2.53;100.00
54872;BME280;43914;57.680;11.982;2022-12-18T08:55:53;101381.88;;;2.54;100.00
54872;BME280;43914;57.680;11.982;2022-12-18T08:58:20;101390.70;;;2.55;100.00
54872;BME280;43914;57.680;11.982;2022-12-18T09:00:46;101390.34;;;2.54;100.00
54872;BME280;43914;57.680;11.982;2022-12-18T09:03:13;101392.13;;;2.53;100.00
54872;BME280;43914;57.680;11.982;2022-12-18T09:05:40;101401.69;;;2.56;100.00
54872;BME280;43914;57.680;11.982;2022-12-18T09:08:06;101409.64;;;2.56;100.00
54872;BME280;43914;57.680;11.982;2022-12-18T09:10:33;101416.73;;;2.55;100.00
54872;BME280;43914;57.680;11.982;2022-12-18T09:13:00;101404.80;;;2.55;100.00
54872;BME280;43914;57.680;11.982;2022-12-18T09:15:28;101406.86;;;2.57;100.00
54872;BME280;43914;57.680;11.982;2022-12-18T09:17:54;101411.06;;;2.54;100.00
54872;BME280;43914;57.680;11.982;2022-12-18T09:20:19;101410.47;;;2.56;100.00
54872;BME280;43914;57.680;11.982;2022-12-18T09:22:45;101403.97;;;2.55;100.00
54872;BME280;43914;57.680;11.982;2022-12-18T09:25:11;101416.14;;;2.57;100.00
54872;BME280;43914;57.680;11.982;2022-12-18T09:27:37;101411.20;;;2.58;100.00
54872;BME280;43914;57.680;11.982;2022-12-18T09:30:05;101402.17;;;2.61;100.00
54872;BME280;43914;57.680;11.982;2022-12-18T09:32:32;101401.08;;;2.58;100.00
54872;BME280;43914;57.680;11.982;2022-12-18T09:34:58;101408.31;;;2.62;100.00
54872;BME280;43914;57.680;11.982;2022-12-18T09:37:24;101417.73;;;2.60;100.00
54872;BME280;43914;57.680;11.982;2022-12-18T09:39:51;101427.16;;;2.64;100.00
54872;BME280;43914;57.680;11.982;2022-12-18T09:42:21;101420.28;;;2.67;100.00
54872;BME280;43914;57.680;11.982;2022-12-18T09:44:53;101425.12;;;2.68;100.00
54872;BME280;43914;57.680;11.982;2022-12-18T09:47:23;101413.91;;;2.70;100.00
54872;BME280;43914;57.680;11.982;2022-12-18T09:50:03;101427.41;;;2.72;100.00
54872;BME280;43914;57.680;11.982;2022-12-18T09:52:37;101424.16;;;2.74;100.00
54872;BME280;43914;57.680;11.982;2022-12-18T09:57:55;101418.15;;;2.78;100.00
54872;BME280;43914;57.680;11.982;2022-12-18T10:00:24;101415.49;;;2.78;100.00
54872;BME280;43914;57.680;11.982;2022-12-18T10:03:17;101406.06;;;2.80;100.00
54872;BME280;43914;57.680;11.982;2022-12-18T10:08:26;101415.23;;;2.76;100.00
54872;BME280;43914;57.680;11.982;2022-12-18T10:11:03;101418.98;;;2.73;100.00
54872;BME280;43914;57.680;11.982;2022-12-18T10:16:09;101422.70;;;2.70;100.00
54872;BME280;43914;57.680;11.982;2022-12-18T10:21:34;101425.70;;;2.60;100.00
54872;BME280;43914;57.680;11.982;2022-12-18T10:26:48;101447.02;;;2.58;100.00
54872;BME280;43914;57.680;11.982;2022-12-18T10:29:15;101447.02;;;2.58;100.00
54872;BME280;43914;57.680;11.982;2022-12-18T10:31:42;101452.10;;;2.62;100.00
54872;BME280;43914;57.680;11.982;2022-12-18T10:34:12;101448.02;;;2.63;100.00
54872;BME280;43914;57.680;11.982;2022-12-18T10:36:40;101456.61;;;2.67;100.00
54872;BME280;43914;57.680;11.982;2022-12-18T10:39:16;101451.77;;;2.66;100.00
54872;BME280;43914;57.680;11.982;2022-12-18T10:41:48;101460.09;;;2.67;100.00
54872;BME280;43914;57.680;11.982;2022-12-18T10:44:26;101458.50;;;2.65;100.00
54872;BME280;43914;57.680;11.982;2022-12-18T10:47:02;101461.16;;;2.65;100.00
54872;BME280;43914;57.680;11.982;2022-12-18T10:49:33;101466.70;;;2.62;100.00
54872;BME280;43914;57.680;11.982;2022-12-18T10:52:21;101474.56;;;2.63;100.00
54872;BME280;43914;57.680;11.982;2022-12-18T10:54:57;101469.25;;;2.63;100.00
54872;BME280;43914;57.680;11.982;2022-12-18T10:57:35;101487.33;;;2.64;100.00
54872;BME280;43914;57.680;11.982;2022-12-18T11:00:25;101483.62;;;2.66;100.00
54872;BME280;43914;57.680;11.982;2022-12-18T11:02:53;101481.00;;;2.72;100.00
54872;BME280;43914;57.680;11.982;2022-12-18T11:05:27;101479.07;;;2.74;100.00
54872;BME280;43914;57.680;11.982;2022-12-18T11:08:04;101488.50;;;2.78;100.00
54872;BME280;43914;57.680;11.982;2022-12-18T11:10:33;101486.70;;;2.84;100.00
54872;BME280;43914;57.680;11.982;2022-12-18T11:13:23;101484.31;;;2.87;100.00
54872;BME280;43914;57.680;11.982;2022-12-18T11:15:55;101474.66;;;2.86;100.00
54872;BME280;43914;57.680;11.982;2022-12-18T11:18:24;101478.04;;;2.88;100.00
54872;BME280;43914;57.680;11.982;2022-12-18T11:21:09;101475.52;;;2.92;100.00
54872;BME280;43914;57.680;11.982;2022-12-18T11:23:49;101485.41;;;2.90;100.00
54872;BME280;43914;57.680;11.982;2022-12-18T11:26:17;101491.05;;;2.85;100.00
54872;BME280;43914;57.680;11.982;2022-12-18T11:28:52;101496.72;;;2.86;100.00
54872;BME280;43914;57.680;11.982;2022-12-18T11:31:26;101490.45;;;2.87;100.00
54872;BME280;43914;57.680;11.982;2022-12-18T11:34:13;101474.13;;;2.75;100.00
54872;BME280;43914;57.680;11.982;2022-12-18T11:36:48;101501.20;;;2.92;100.00
54872;BME280;43914;57.680;11.982;2022-12-18T11:48:01;101512.78;;;2.91;100.00
54872;BME280;43914;57.680;11.982;2022-12-18T11:53:11;101512.92;;;2.95;100.00
54872;BME280;43914;57.680;11.982;2022-12-18T11:58:46;101510.27;;;2.95;100.00
54872;BME280;43914;57.680;11.982;2022-12-18T12:01:43;101513.88;;;2.94;100.00
54872;BME280;43914;57.680;11.982;2022-12-18T12:04:40;101509.80;;;2.95;100.00
54872;BME280;43914;57.680;11.982;2022-12-18T12:34:01;101539.39;;;2.72;100.00
54872;BME280;43914;57.680;11.982;2022-12-18T12:39:36;101549.05;;;2.79;100.00
54872;BME280;43914;57.680;11.982;2022-12-18T12:42:05;101549.05;;;2.79;100.00
54872;BME280;43914;57.680;11.982;2022-12-18T12:45:20;101536.15;;;2.80;100.00
54872;BME280;43914;57.680;11.982;2022-12-18T12:47:49;101537.84;;;2.75;100.00
54872;BME280;43914;57.680;11.982;2022-12-18T12:50:18;101541.81;;;2.75;100.00
54872;BME280;43914;57.680;11.982;2022-12-18T12:52:54;101541.59;;;2.78;100.00
54872;BME280;43914;57.680;11.982;2022-12-18T12:55:24;101545.80;;;2.81;100.00
54872;BME280;43914;57.680;11.982;2022-12-18T12:58:45;101543.05;;;2.82;100.00
54872;BME280;43914;57.680;11.982;2022-12-18T13:03:35;101543.92;;;2.88;100.00
54872;BME280;43914;57.680;11.982;2022-12-18T13:11:39;101560.48;;;2.92;100.00
54872;BME280;43914;57.680;11.982;2022-12-18T13:14:31;101556.50;;;2.92;100.00
54872;BME280;43914;57.680;11.982;2022-12-18T13:22:43;101556.30;;;3.01;100.00
54872;BME280;43914;57.680;11.982;2022-12-18T13:25:35;101556.30;;;3.01;100.00
54872;BME280;43914;57.680;11.982;2022-12-18T13:28:05;101554.97;;;3.01;100.00
54872;BME280;43914;57.680;11.982;2022-12-18T13:30:55;101555.94;;;3.00;100.00
54872;BME280;43914;57.680;11.982;2022-12-18T13:42:37;101555.87;;;2.88;100.00
54872;BME280;43914;57.680;11.982;2022-12-18T13:44:35;101560.44;;;2.86;100.00
54872;BME280;43914;57.680;11.982;2022-12-18T13:47:04;101564.78;;;2.82;100.00
54872;BME280;43914;57.680;11.982;2022-12-18T13:49:42;101564.78;;;2.82;100.00
54872;BME280;43914;57.680;11.982;2022-12-18T13:52:15;101561.50;;;2.78;100.00
54872;BME280;43914;57.680;11.982;2022-12-18T13:54:45;101562.33;;;2.79;100.00
54872;BME280;43914;57.680;11.982;2022-12-18T13:57:28;101569.70;;;2.81;100.00
54872;BME280;43914;57.680;11.982;2022-12-18T14:00:26;101573.58;;;2.82;100.00
54872;BME280;43914;57.680;11.982;2022-12-18T14:02:57;101566.21;;;2.80;100.00
54872;BME280;43914;57.680;11.982;2022-12-18T14:05:32;101569.70;;;2.81;100.00
54872;BME280;43914;57.680;11.982;2022-12-18T14:08:14;101567.77;;;2.77;100.00
54872;BME280;43914;57.680;11.982;2022-12-18T14:10:45;101566.17;;;2.74;100.00
54872;BME280;43914;57.680;11.982;2022-12-18T14:13:24;101585.84;;;2.72;100.00
54872;BME280;43914;57.680;11.982;2022-12-18T14:15:54;101581.12;;;2.70;100.00
54872;BME280;43914;57.680;11.982;2022-12-18T14:18:24;101591.75;;;2.70;100.00
54872;BME280;43914;57.680;11.982;2022-12-18T14:20:56;101578.52;;;2.57;100.00
54872;BME280;43914;57.680;11.982;2022-12-18T14:26:23;101587.45;;;2.62;100.00
54872;BME280;43914;57.680;11.982;2022-12-18T14:28:53;101582.59;;;2.55;100.00
54872;BME280;43914;57.680;11.982;2022-12-18T14:31:29;101577.59;;;2.45;100.00
54872;BME280;43914;57.680;11.982;2022-12-18T14:33:53;101577.59;;;2.45;100.00
54872;BME280;43914;57.680;11.982;2022-12-18T14:36:24;101581.25;;;2.50;100.00
54872;BME280;43914;57.680;11.982;2022-12-18T14:38:58;101574.58;;;2.44;100.00
54872;BME280;43914;57.680;11.982;2022-12-18T14:41:25;101574.58;;;2.44;100.00
54872;BME280;43914;57.680;11.982;2022-12-18T14:43:54;101577.27;;;2.50;100.00